Latest Coastal Weather Observations for Gold Coast Seaway

IDQ60701

Issued at 9:55 pm EST Friday 1 August 2014 (issued every 10 minutes, with the page automatically refreshed every 10 minutes)

About coastal observations | Map of coastal stations | Coastal observations for QLD | Marine services | Other Formats
Station Details ID: 040764 Name: GOLD COAST SEAWAY Lat: -27.94 Lon: 153.43 Height: 2.98 m
Data from the previous 72 hours. | See also: Recent months at Gold Coast Seaway
Date/Time
EST
Temp

°C
Wind Pressure Rain
since 9am
mm
Weather Cloud Vis
km
Sea
Height
m
Swell
Dir
 
Speed
knots
Gust
knots
hPa Trend Height
m
Period
s
Dir
01/09:30pm 19.0 NNW 9 13 1013.8 - 0.0 - - - - - - -
01/09:00pm 19.3 NNW 11 15 1013.4 - 0.0 - - - - - - -
01/08:30pm 19.6 N 12 16 1013.1 - 0.0 - - - - - - -
01/08:00pm 19.9 N 13 19 1012.9 - 0.0 - - - - - - -
01/07:30pm 20.0 N 15 19 1012.7 - 0.0 - - - - - - -
01/07:00pm 20.0 N 13 18 1012.2 - 0.0 - - - - - - -
01/06:30pm 20.5 N 13 18 1011.8 - 0.0 - - - - - - -
01/06:00pm 21.0 N 13 16 1011.1 - 0.0 - - - - - - -
01/05:30pm 21.7 N 11 15 1010.6 - 0.0 - - - - - - -
01/05:00pm 21.3 N 14 17 1010.3 - 0.0 - - - - - - -
01/04:30pm 21.8 N 17 19 1010.2 - 0.0 - - - - - - -
01/04:00pm 22.3 N 16 18 1010.2 - 0.0 - - - - - - -
01/03:30pm 22.5 N 15 18 1010.2 - 0.0 - - - - - - -
01/03:00pm 23.9 N 16 20 1010.4 - 0.0 - - - - - - -
01/02:30pm 22.4 NE 15 17 1010.9 - 0.0 - - - - - - -
01/02:00pm 23.4 NNE 13 17 1011.3 - 0.0 - - - - - - -
01/01:30pm 23.3 N 16 18 1011.6 - 0.0 - - - - - - -
01/01:00pm 23.5 NNE 14 16 1012.1 - 0.0 - - - - - - -
01/12:30pm 25.1 N 11 18 1012.7 - 0.0 - - - - - - -
01/12:00pm 24.4 NNW 13 19 1013.3 - 0.0 - - - - - - -
01/11:30am 23.6 N 12 18 1013.9 - 0.0 - - - - - - -
01/11:00am 23.2 N 11 15 1014.5 - 0.0 - - - - - - -
01/10:30am 22.2 NNW 9 12 1014.9 - 0.0 - - - - - - -
01/10:00am 21.2 NNW 11 16 1015.1 - 0.0 - - - - - - -
01/09:30am 20.0 N 10 14 1015.6 - 0.0 - - - - - - -
01/09:00am 19.3 NNW 6 9 1016.0 - 0.0 - - - - - - -
01/08:30am 17.6 N 7 9 1016.0 - 0.0 - - - - - - -
01/08:00am 16.4 NW 6 7 1016.0 - 0.0 - - - - - - -
01/07:30am 15.0 NW 6 8 1016.0 - 0.0 - - - - - - -
01/07:00am 14.1 WNW 7 7 1016.0 - 0.0 - - - - - - -
01/06:30am 13.8 WNW 6 7 1015.9 - 0.0 - - - - - - -
01/06:00am 14.3 NW 5 6 1015.8 - 0.0 - - - - - - -
01/05:30am 14.4 NW 6 7 1015.8 - 0.0 - - - - - - -
01/05:00am 14.1 WNW 5 6 1015.7 - 0.0 - - - - - - -
01/04:30am 14.8 WNW 5 7 1015.7 - 0.0 - - - - - - -
01/04:00am 15.4 NNW 7 7 1015.4 - 0.0 - - - - - - -
01/03:30am 15.5 NW 6 6 1015.6 - 0.0 - - - - - - -
01/03:00am 15.9 N 7 8 1015.7 - 0.0 - - - - - - -
01/02:30am 16.2 NW 6 7 1016.1 - 0.0 - - - - - - -
01/02:00am 16.5 NW 8 9 1016.2 - 0.0 - - - - - - -
01/01:30am 16.9 NW 7 8 1016.2 - 0.0 - - - - - - -
01/01:00am 17.0 NNW 7 9 1016.3 - 0.0 - - - - - - -
01/12:30am 17.2 NNW 7 9 1016.7 - 0.0 - - - - - - -
01/12:00am 17.7 NNW 8 12 1017.0 - 0.0 - - - - - - -
 
Date/Time
EST
Temp

°C
Wind Pressure Rain
since 9am
mm
Weather Cloud Vis
km
Sea
Height
m
Swell
Dir
 
Speed
knots
Gust
knots
hPa Trend Height
m
Period
s
Dir
31/11:30pm 17.8 NNW 8 12 1017.1 - 0.0 - - - - - - -
31/11:00pm 17.7 NNW 8 10 1017.1 - 0.0 - - - - - - -
31/10:30pm 17.3 NNW 7 10 1017.1 - 0.0 - - - - - - -
31/10:00pm 17.1 NNW 7 9 1017.2 - 0.0 - - - - - - -
31/09:30pm 17.3 NW 6 8 1017.2 - 0.0 - - - - - - -
31/09:00pm 17.4 NNW 8 9 1017.2 - 0.0 - - - - - - -
31/08:30pm 17.7 NNW 9 11 1017.1 - 0.0 - - - - - - -
31/08:00pm 17.2 NW 7 9 1016.8 - 0.0 - - - - - - -
31/07:30pm 17.9 NW 7 9 1016.6 - 0.0 - - - - - - -
31/07:00pm 17.9 NW 5 7 1016.2 - 0.0 - - - - - - -
31/06:30pm 18.4 NNW 6 8 1016.1 - 0.0 - - - - - - -
31/06:00pm 18.9 NNW 7 10 1015.9 - 0.0 - - - - - - -
31/05:30pm 19.6 N 10 14 1015.6 - 0.0 - - - - - - -
31/05:00pm 20.1 N 15 18 1015.4 - 0.0 - - - - - - -
31/04:30pm 20.6 N 15 17 1015.3 - 0.0 - - - - - - -
31/04:00pm 21.0 N 15 17 1015.4 - 0.0 - - - - - - -
31/03:30pm 21.8 NNE 14 16 1015.4 - 0.0 - - - - - - -
31/03:00pm 22.1 NNE 16 20 1015.5 - 0.0 - - - - - - -
31/02:30pm 22.9 NNE 13 16 1015.5 - 0.0 - - - - - - -
31/02:00pm 23.4 NNE 13 16 1015.9 - 0.0 - - - - - - -
31/01:30pm 24.7 N 11 15 1016.3 - 0.0 - - - - - - -
31/01:00pm 24.1 N 11 17 1017.0 - 0.0 - - - - - - -
31/12:30pm 24.2 N 12 16 1017.8 - 0.0 - - - - - - -
31/12:00pm 23.2 N 11 15 1018.4 - 0.0 - - - - - - -
31/11:30am 22.6 N 10 15 1019.1 - 0.0 - - - - - - -
31/11:00am 21.8 NNW 10 14 1019.9 - 0.0 - - - - - - -
31/10:30am 20.9 NW 13 16 1020.4 - 0.0 - - - - - - -
31/10:00am 19.6 NW 9 11 1020.8 - 0.0 - - - - - - -
31/09:30am 17.2 NNW 10 13 1021.0 - 0.0 - - - - - - -
31/09:00am 15.8 NNW 6 8 1021.0 - 0.2 - - - - - - -
31/08:30am 13.9 NNW 4 5 1020.9 - 0.2 - - - - - - -
31/08:00am 11.9 NNW 4 5 1020.6 - 0.2 - - - - - - -
31/07:30am 10.0 WNW 8 9 1020.2 - 0.0 - - - - - - -
31/07:00am 9.4 WNW 11 13 1019.9 - 0.0 - - - - - - -
31/06:30am 9.4 NW 6 9 1019.8 - 0.0 - - - - - - -
31/06:00am 10.0 NW 10 11 1019.6 - 0.0 - - - - - - -
31/05:30am 9.8 NW 11 13 1019.5 - 0.0 - - - - - - -
31/05:00am 10.1 NW 9 10 1019.3 - 0.0 - - - - - - -
31/04:30am 10.9 NW 7 9 1019.2 - 0.0 - - - - - - -
31/04:00am 11.4 NW 6 7 1019.2 - 0.0 - - - - - - -
31/03:30am 12.1 NW 6 7 1019.2 - 0.0 - - - - - - -
31/03:00am 10.3 W 4 4 1019.3 - 0.0 - - - - - - -
31/02:30am 10.4 W 4 5 1019.4 - 0.0 - - - - - - -
31/02:00am 11.3 W 2 4 1019.5 - 0.0 - - - - - - -
31/01:30am 10.8 W 3 4 1019.6 - 0.0 - - - - - - -
31/01:00am 12.0 W 4 5 1019.8 - 0.0 - - - - - - -
31/12:30am 12.5 W 5 6 1019.9 - 0.0 - - - - - - -
31/12:00am 11.4 W 3 4 1020.0 - 0.0 - - - - - - -
 
Date/Time
EST
Temp

°C
Wind Pressure Rain
since 9am
mm
Weather Cloud Vis
km
Sea
Height
m
Swell
Dir
 
Speed
knots
Gust
knots
hPa Trend Height
m
Period
s
Dir
30/11:30pm 12.2 SW 5 5 1020.3 - 0.0 - - - - - - -
30/11:00pm 12.9 WSW 5 6 1020.5 - 0.0 - - - - - - -
30/10:30pm 13.0 W 5 5 1020.5 - 0.0 - - - - - - -
30/10:00pm 13.6 WSW 4 6 1020.7 - 0.0 - - - - - - -
30/09:30pm 13.4 WSW 5 6 1020.8 - 0.0 - - - - - - -
30/09:00pm 14.2 W 6 7 1020.7 - 0.0 - - - - - - -
30/08:30pm 14.6 WSW 6 7 1020.6 - 0.0 - - - - - - -
30/08:00pm 15.1 S 7 9 1020.5 - 0.0 - - - - - - -
30/07:30pm 14.0 ENE 3 5 1020.3 - 0.0 - - - - - - -
30/07:00pm 14.2 ENE 2 3 1020.2 - 0.0 - - - - - - -
30/06:30pm 14.3 CALM 0 0 1020.0 - 0.0 - - - - - - -
30/06:00pm 15.3 ENE 4 4 1019.8 - 0.0 - - - - - - -
30/05:30pm 16.9 ENE 6 7 1019.5 - 0.0 - - - - - - -
30/05:00pm 19.0 NE 7 8 1019.2 - 0.0 - - - - - - -
30/04:30pm 20.0 ENE 8 9 1018.8 - 0.0 - - - - - - -
30/04:00pm 20.6 ENE 9 10 1018.8 - 0.0 - - - - - - -
30/03:30pm 21.2 ENE 9 10 1018.7 - 0.0 - - - - - - -
30/03:00pm 21.5 ENE 9 10 1018.6 - 0.0 - - - - - - -
30/02:30pm 21.4 ENE 9 11 1018.6 - 0.0 - - - - - - -
30/02:00pm 22.8 NE 9 10 1018.7 - 0.0 - - - - - - -
30/01:30pm 22.9 NE 9 11 1018.8 - 0.0 - - - - - - -
30/01:00pm 23.0 NE 8 9 1019.1 - 0.0 - - - - - - -
30/12:30pm 23.1 NNW 6 9 1019.6 - 0.0 - - - - - - -
30/12:00pm 22.5 NNW 5 10 1020.2 - 0.0 - - - - - - -
30/11:30am 22.1 NW 7 10 1020.8 - 0.0 - - - - - - -
30/11:00am 21.8 NW 7 9 1021.4 - 0.0 - - - - - - -
30/10:30am 20.7 NNW 5 7 1021.8 - 0.0 - - - - - - -
30/10:00am 19.6 NNE 3 5 1022.3 - 0.0 - - - - - - -
30/09:30am 17.6 WNW 5 6 1022.6 - 0.0 - - - - - - -
30/09:00am 15.6 WNW 7 8 1022.6 - 0.0 - - - - - - -
30/08:30am 13.7 WNW 8 8 1022.5 - 0.0 - - - - - - -
30/08:00am 11.7 NW 7 8 1022.4 - 0.0 - - - - - - -
30/07:30am 10.7 W 6 7 1022.2 - 0.0 - - - - - - -
30/07:00am 8.8 W 5 6 1022.2 - 0.0 - - - - - - -
30/06:30am 7.2 WNW 4 5 1021.8 - 0.0 - - - - - - -
30/06:00am 8.5 WNW 5 7 1021.5 - 0.0 - - - - - - -
30/05:30am 7.6 WNW 3 5 1021.4 - 0.0 - - - - - - -
30/05:00am 7.3 WNW 3 5 1021.2 - 0.0 - - - - - - -
30/04:30am 9.4 NW 5 7 1020.9 - 0.0 - - - - - - -
30/04:00am 9.2 WNW 3 6 1020.6 - 0.0 - - - - - - -
30/03:30am 10.5 WNW 6 7 1020.4 - 0.0 - - - - - - -
30/03:00am 10.5 W 6 7 1020.5 - 0.0 - - - - - - -
30/02:30am 10.0 SSW 5 7 1020.8 - 0.0 - - - - - - -
30/02:00am 11.1 SW 4 5 1020.8 - 0.0 - - - - - - -
30/01:30am 11.7 SW 7 9 1021.0 - 0.0 - - - - - - -
30/01:00am 12.0 WNW 6 7 1021.0 - 0.0 - - - - - - -
30/12:30am 12.6 W 7 8 1021.4 - 0.0 - - - - - - -
30/12:00am 12.5 W 5 6 1021.4 - 0.0 - - - - - - -
 
Date/Time
EST
Temp

°C
Wind Pressure Rain
since 9am
mm
Weather Cloud Vis
km
Sea
Height
m
Swell
Dir
 
Speed
knots
Gust
knots
hPa Trend Height
m
Period
s
Dir
29/11:30pm 12.3 SW 4 5 1021.5 - 0.0 - - - - - - -
29/11:00pm 12.6 SW 8 10 1021.6 - 0.0 - - - - - - -
29/10:30pm 12.8 WSW 6 8 1021.5 - 0.0 - - - - - - -
29/10:00pm 13.6 SW 7 9 1021.3 - 0.0 - - - - - - -

Other Formats:

Comma delimited format used in spreadsheet applications
http://www.bom.gov.au/fwo/IDQ60701/IDQ60701.94580.axf

JavaScript Object Notation format (JSON) in row-major order
http://www.bom.gov.au/fwo/IDQ60701/IDQ60701.94580.json